In Rescue
 
Open Full Screen Window  High Contrast Mode
September 21, 2019 9:03 AM EDT
Present Weather: Mist
Weather Information
Wind Direction
  ---
Wind Speed
  00 kt (0 mph)
Wind Gust
  00 kt (0 mph)
Altimeter
30.23 in
Visibility
5 SM
Temperature
21° C
70° F
Dewpoint
19° C
66° F
Humidity
88%
Sky Condition
Scattered @ 4,200 ft
MVFR

METAR KAXV 211303Z AUTO 00000KT 5SM BR SCT042 21/19 A3023 RMK AO2 LTG DSNT SE

FAA Disclaimer: The data displayed is for advisory purposes only and is not to be used for flight planning or operations.